createdAt,value
2024-02-29T00:00:07.474Z,3.50
2024-02-29T00:02:35.412Z,3.48
2024-02-29T00:05:02.535Z,3.46
2024-02-29T00:07:29.618Z,3.47
2024-02-29T00:09:56.689Z,3.47
2024-02-29T00:12:23.795Z,3.45
2024-02-29T00:14:51.794Z,3.41
2024-02-29T00:17:19.015Z,3.35
2024-02-29T00:19:46.057Z,3.35
2024-02-29T00:22:13.159Z,3.37
2024-02-29T00:24:40.310Z,3.36
2024-02-29T00:27:08.526Z,3.31
2024-02-29T00:29:35.706Z,3.30
2024-02-29T00:32:02.965Z,3.39
2024-02-29T00:34:30.077Z,3.36
2024-02-29T00:36:57.562Z,3.32
2024-02-29T00:39:24.750Z,3.32
2024-02-29T00:41:51.836Z,3.34
2024-02-29T00:44:18.927Z,3.32
2024-02-29T00:46:46.013Z,3.33
2024-02-29T00:49:14.971Z,3.35
2024-02-29T00:51:43.010Z,3.31
2024-02-29T00:54:10.184Z,3.30
2024-02-29T00:56:37.312Z,3.30
2024-02-29T00:59:04.437Z,3.37
2024-02-29T01:01:31.799Z,3.34
2024-02-29T01:03:59.246Z,3.30
2024-02-29T01:06:26.475Z,3.31
2024-02-29T01:08:53.589Z,3.32
2024-02-29T01:11:20.776Z,3.31
2024-02-29T01:13:47.880Z,3.26
2024-02-29T01:16:14.988Z,3.23
2024-02-29T01:18:42.160Z,3.25
2024-02-29T01:21:09.427Z,3.26
2024-02-29T01:23:36.567Z,3.23
2024-02-29T01:26:05.247Z,3.25
2024-02-29T01:28:32.463Z,3.21
2024-02-29T01:31:01.430Z,3.18
2024-02-29T01:33:28.867Z,3.18
2024-02-29T01:35:56.087Z,3.14
2024-02-29T01:38:23.185Z,3.14
2024-02-29T01:40:50.318Z,3.15
2024-02-29T01:43:17.646Z,3.14
2024-02-29T01:45:45.153Z,3.16
2024-02-29T01:48:13.209Z,3.14
2024-02-29T01:50:40.659Z,3.13
2024-02-29T01:53:07.867Z,3.11
2024-02-29T01:55:35.327Z,3.16
2024-02-29T01:58:05.853Z,3.20
2024-02-29T02:00:34.325Z,3.17
2024-02-29T02:03:01.485Z,3.13
2024-02-29T02:05:28.631Z,3.16
2024-02-29T02:07:56.344Z,3.11
2024-02-29T02:10:23.548Z,3.09
2024-02-29T02:12:50.661Z,3.09
2024-02-29T02:15:17.894Z,3.05
2024-02-29T02:17:45.084Z,3.04
2024-02-29T02:20:16.784Z,3.07
2024-02-29T02:22:43.873Z,3.04
2024-02-29T02:25:11.119Z,3.01
2024-02-29T02:27:38.809Z,2.99
2024-02-29T02:30:08.203Z,3.02
2024-02-29T02:32:36.482Z,3.02
2024-02-29T02:35:05.333Z,3.00
2024-02-29T02:37:32.620Z,3.00
2024-02-29T02:39:59.976Z,3.02
2024-02-29T02:42:27.179Z,2.99
2024-02-29T02:44:54.245Z,2.97
2024-02-29T02:47:21.304Z,2.99
2024-02-29T02:49:48.392Z,2.98
2024-02-29T02:52:15.545Z,2.97
2024-02-29T02:57:38.980Z,2.96
2024-02-29T03:00:11.338Z,3.01
2024-02-29T03:02:41.566Z,2.98
2024-02-29T03:05:10.272Z,2.96
2024-02-29T03:07:39.531Z,2.92
2024-02-29T03:10:07.861Z,2.95
2024-02-29T03:12:35.624Z,2.96
2024-02-29T03:15:02.797Z,2.90
2024-02-29T03:17:30.291Z,2.90
2024-02-29T03:19:57.360Z,2.87
2024-02-29T03:22:24.468Z,2.90
2024-02-29T03:24:53.240Z,2.85
2024-02-29T03:27:20.350Z,2.92
2024-02-29T03:29:47.425Z,2.94
2024-02-29T03:32:14.503Z,2.91
2024-02-29T03:34:41.631Z,2.90
2024-02-29T03:37:09.208Z,2.89
2024-02-29T03:39:36.497Z,2.87
2024-02-29T03:42:03.639Z,2.84
2024-02-29T03:44:30.728Z,2.85
2024-02-29T03:46:57.796Z,2.84
2024-02-29T03:49:24.899Z,2.87
2024-02-29T03:51:52.091Z,2.86
2024-02-29T03:54:19.220Z,2.87
2024-02-29T03:56:46.268Z,2.90
2024-02-29T03:59:14.172Z,2.88
2024-02-29T04:01:46.922Z,2.87
2024-02-29T04:04:14.168Z,2.84
2024-02-29T04:06:41.313Z,2.78
2024-02-29T04:09:08.381Z,2.77
2024-02-29T04:11:35.470Z,2.72
2024-02-29T04:14:02.513Z,2.73
2024-02-29T04:16:29.575Z,2.74
2024-02-29T04:18:56.849Z,2.74
2024-02-29T04:21:23.994Z,2.83
2024-02-29T04:23:51.035Z,2.84
2024-02-29T04:26:18.537Z,2.83
2024-02-29T04:28:45.603Z,2.78
2024-02-29T04:31:12.803Z,2.81
2024-02-29T04:33:40.182Z,2.75
2024-02-29T04:36:08.276Z,2.73
2024-02-29T04:38:35.345Z,2.72
2024-02-29T04:41:02.452Z,2.71
2024-02-29T04:43:29.751Z,2.74
2024-02-29T04:45:56.962Z,2.79
2024-02-29T04:48:24.071Z,2.82
2024-02-29T04:50:51.202Z,2.77
2024-02-29T04:53:18.810Z,2.73
2024-02-29T04:55:45.914Z,2.73
2024-02-29T04:58:13.106Z,2.75
2024-02-29T05:00:40.349Z,2.77
2024-02-29T05:03:07.424Z,2.74
2024-02-29T05:05:34.508Z,2.72
2024-02-29T05:08:01.841Z,2.69
2024-02-29T05:10:29.559Z,2.63
2024-02-29T05:12:57.041Z,2.64
2024-02-29T05:15:24.530Z,2.64
2024-02-29T05:17:51.641Z,2.71
2024-02-29T05:20:18.800Z,2.65
2024-02-29T05:22:45.918Z,2.64
2024-02-29T05:25:13.275Z,2.64
2024-02-29T05:27:40.586Z,2.66
2024-02-29T05:30:07.986Z,2.61
2024-02-29T05:32:35.205Z,2.63
2024-02-29T05:35:02.423Z,2.63
2024-02-29T05:37:31.016Z,2.69
2024-02-29T05:39:59.873Z,2.77
2024-02-29T05:42:29.765Z,2.76
2024-02-29T05:44:56.930Z,2.76
2024-02-29T05:47:24.130Z,2.78
2024-02-29T05:49:51.276Z,2.77
2024-02-29T05:52:18.454Z,2.79
2024-02-29T05:54:45.771Z,2.85
2024-02-29T05:57:12.982Z,2.87
2024-02-29T05:59:40.172Z,2.85
2024-02-29T06:02:07.365Z,2.89
2024-02-29T06:04:34.515Z,2.87
2024-02-29T06:07:01.617Z,2.81
2024-02-29T06:09:28.762Z,2.85
2024-02-29T06:11:55.861Z,2.84
2024-02-29T06:14:25.492Z,2.87
2024-02-29T06:16:52.630Z,2.87
2024-02-29T06:19:19.806Z,2.87
2024-02-29T06:21:47.077Z,2.85
2024-02-29T06:24:19.580Z,2.90
2024-02-29T06:26:47.456Z,2.88
2024-02-29T06:29:14.724Z,2.84
2024-02-29T06:31:43.598Z,2.84
2024-02-29T06:34:10.856Z,2.86
2024-02-29T06:36:38.062Z,2.87
2024-02-29T06:39:09.369Z,2.86
2024-02-29T06:41:37.612Z,2.85
2024-02-29T06:44:07.251Z,2.86
2024-02-29T06:46:34.377Z,2.82
2024-02-29T06:49:02.057Z,2.81
2024-02-29T06:51:29.525Z,2.80
2024-02-29T06:53:57.157Z,2.80
2024-02-29T06:56:24.345Z,2.83
2024-02-29T06:58:51.428Z,2.88
2024-02-29T07:01:22.454Z,2.87
2024-02-29T07:03:49.652Z,2.82
2024-02-29T07:06:17.103Z,2.78
2024-02-29T07:08:44.226Z,2.85
2024-02-29T07:11:13.091Z,2.87
2024-02-29T07:13:40.484Z,2.89
2024-02-29T07:16:07.574Z,2.90
2024-02-29T07:18:34.908Z,2.89
2024-02-29T07:21:02.004Z,2.94
2024-02-29T07:23:29.385Z,2.95
2024-02-29T07:25:56.431Z,2.99
2024-02-29T07:28:23.600Z,3.01
2024-02-29T07:30:50.811Z,3.06
2024-02-29T07:33:18.380Z,3.16
2024-02-29T07:35:45.507Z,3.17
2024-02-29T07:38:12.589Z,3.26
2024-02-29T07:40:40.006Z,3.30
2024-02-29T07:43:07.448Z,3.36
2024-02-29T07:45:34.586Z,3.34
2024-02-29T07:48:03.758Z,3.41
2024-02-29T07:50:32.348Z,3.53
2024-02-29T07:52:59.428Z,3.51
2024-02-29T07:55:27.749Z,3.56
2024-02-29T07:57:54.837Z,3.64
2024-02-29T08:00:21.918Z,3.61
2024-02-29T08:02:49.018Z,3.63
2024-02-29T08:05:16.301Z,3.71
2024-02-29T08:07:47.658Z,3.72
2024-02-29T08:10:17.110Z,3.85
2024-02-29T08:12:45.130Z,3.91
2024-02-29T08:15:12.492Z,3.89
2024-02-29T08:17:39.666Z,3.83
2024-02-29T08:20:09.132Z,3.90
2024-02-29T08:22:36.612Z,3.86
2024-02-29T08:25:04.022Z,3.78
2024-02-29T08:27:31.197Z,3.92
2024-02-29T08:29:59.534Z,4.01
2024-02-29T08:32:26.695Z,3.98
2024-02-29T08:34:55.099Z,3.96
2024-02-29T08:37:22.233Z,4.05
2024-02-29T08:39:49.778Z,4.14
2024-02-29T08:42:16.874Z,4.16
2024-02-29T08:44:44.248Z,4.23
2024-02-29T08:47:11.478Z,4.30
2024-02-29T08:49:39.316Z,4.29
2024-02-29T08:52:08.977Z,4.40
2024-02-29T08:54:37.442Z,4.46
2024-02-29T08:57:05.790Z,4.36
2024-02-29T08:59:33.976Z,4.36
2024-02-29T09:02:04.105Z,4.41
2024-02-29T09:04:31.735Z,4.34
2024-02-29T09:06:58.997Z,4.47
2024-02-29T09:09:26.155Z,4.58
2024-02-29T09:11:53.252Z,4.69
2024-02-29T09:14:20.737Z,4.64
2024-02-29T09:16:47.969Z,4.65
2024-02-29T09:19:15.145Z,4.78
2024-02-29T09:21:43.441Z,4.80
2024-02-29T09:24:12.607Z,4.85
2024-02-29T09:26:41.067Z,4.94
2024-02-29T09:29:08.163Z,5.01
2024-02-29T09:31:35.291Z,5.04
2024-02-29T09:34:02.467Z,4.88
2024-02-29T09:36:32.367Z,5.03
2024-02-29T09:38:59.558Z,5.11
2024-02-29T09:41:41.364Z,5.18
2024-02-29T09:44:14.366Z,5.06
2024-02-29T09:46:42.887Z,5.15
2024-02-29T09:49:10.186Z,5.14
2024-02-29T09:51:38.287Z,5.21
2024-02-29T09:54:07.761Z,5.29
2024-02-29T09:56:34.858Z,5.28
2024-02-29T09:59:02.943Z,5.36
2024-02-29T10:01:31.168Z,5.42
2024-02-29T10:03:59.738Z,5.37
2024-02-29T10:06:26.787Z,5.43
2024-02-29T10:08:53.880Z,5.33
2024-02-29T10:11:21.959Z,5.35
2024-02-29T10:13:49.065Z,5.34
2024-02-29T10:16:16.186Z,5.32
2024-02-29T10:18:43.438Z,5.43
2024-02-29T10:21:15.403Z,5.41
2024-02-29T10:23:43.412Z,5.32
2024-02-29T10:26:10.492Z,5.33
2024-02-29T10:28:37.627Z,5.26
2024-02-29T10:31:05.559Z,5.33
2024-02-29T10:33:38.848Z,5.38
2024-02-29T10:36:10.529Z,5.37
2024-02-29T10:38:38.500Z,5.36
2024-02-29T10:41:08.099Z,5.30
2024-02-29T10:43:35.511Z,5.47
2024-02-29T10:46:05.190Z,5.58
2024-02-29T10:48:32.313Z,5.51
2024-02-29T10:51:07.482Z,5.41
2024-02-29T10:53:43.468Z,5.36
2024-02-29T10:56:21.829Z,5.41
2024-02-29T10:58:52.071Z,5.38
2024-02-29T11:01:19.320Z,5.31
2024-02-29T11:03:46.998Z,5.42
2024-02-29T11:06:14.380Z,5.44
2024-02-29T11:08:41.861Z,5.52
2024-02-29T11:11:16.430Z,5.36
2024-02-29T11:13:43.565Z,5.38
2024-02-29T11:16:12.276Z,5.45
2024-02-29T11:18:39.631Z,5.55
2024-02-29T11:21:06.984Z,5.65
2024-02-29T11:23:35.222Z,5.67
2024-02-29T11:26:03.005Z,5.55
2024-02-29T11:28:34.416Z,5.56
2024-02-29T11:31:17.138Z,5.56
2024-02-29T11:33:45.391Z,5.56
2024-02-29T11:36:13.036Z,5.64
2024-02-29T11:38:41.026Z,5.54
2024-02-29T11:41:17.985Z,5.65
2024-02-29T11:43:45.586Z,5.56
2024-02-29T11:46:13.073Z,5.56
2024-02-29T11:48:40.681Z,5.57
2024-02-29T11:51:11.187Z,5.59
2024-02-29T11:53:39.743Z,5.57
2024-02-29T11:56:14.776Z,5.66
2024-02-29T11:58:43.462Z,5.78
2024-02-29T12:01:13.768Z,5.57
2024-02-29T12:03:41.353Z,5.63
2024-02-29T12:06:08.637Z,5.78
2024-02-29T12:08:35.902Z,5.78
2024-02-29T12:11:03.637Z,5.70
2024-02-29T12:13:31.056Z,5.78
2024-02-29T12:15:58.996Z,5.72
2024-02-29T12:18:26.554Z,5.71
2024-02-29T12:20:53.746Z,5.73
2024-02-29T12:23:21.010Z,5.73
2024-02-29T12:25:48.091Z,5.69
2024-02-29T12:28:15.562Z,5.72
2024-02-29T12:30:43.117Z,5.69
2024-02-29T12:33:14.252Z,5.68
2024-02-29T12:35:43.696Z,5.74
2024-02-29T12:38:18.566Z,5.72
2024-02-29T12:40:46.004Z,5.71
2024-02-29T12:43:16.694Z,5.65
2024-02-29T12:45:44.326Z,5.73
2024-02-29T12:48:12.481Z,5.84
2024-02-29T12:50:41.613Z,5.79
2024-02-29T12:53:08.798Z,5.76
2024-02-29T12:55:36.819Z,5.81
2024-02-29T12:58:04.739Z,5.91
2024-02-29T13:00:31.958Z,5.92
2024-02-29T13:02:59.168Z,5.78
2024-02-29T13:05:26.245Z,5.79
2024-02-29T13:07:53.351Z,5.77
2024-02-29T13:10:21.834Z,5.71
2024-02-29T13:12:52.008Z,5.70
2024-02-29T13:15:24.178Z,5.73
2024-02-29T13:17:51.375Z,5.79
2024-02-29T13:20:18.776Z,5.85
2024-02-29T13:22:45.907Z,5.80
2024-02-29T13:25:13.591Z,5.74
2024-02-29T13:27:40.780Z,5.76
2024-02-29T13:30:08.130Z,5.74
2024-02-29T13:32:35.216Z,5.84
2024-02-29T13:35:02.545Z,5.75
2024-02-29T13:37:29.969Z,5.86
2024-02-29T13:39:57.155Z,5.80
2024-02-29T13:42:24.268Z,5.88
2024-02-29T13:44:51.367Z,5.89
2024-02-29T13:47:18.434Z,5.90
2024-02-29T13:49:45.583Z,5.91
2024-02-29T13:52:17.991Z,5.90
2024-02-29T13:54:46.331Z,5.84
2024-02-29T13:57:15.304Z,5.88
2024-02-29T13:59:43.389Z,5.81
2024-02-29T14:02:11.792Z,5.83
2024-02-29T14:04:38.985Z,5.87
2024-02-29T14:07:06.263Z,5.92
2024-02-29T14:09:35.459Z,5.87
2024-02-29T14:12:02.697Z,5.90
2024-02-29T14:14:29.797Z,5.98
2024-02-29T14:16:56.935Z,6.02
2024-02-29T14:19:24.197Z,5.98
2024-02-29T14:21:51.398Z,6.09
2024-02-29T14:24:18.498Z,6.08
2024-02-29T14:26:45.836Z,6.10
2024-02-29T14:29:13.011Z,5.96
2024-02-29T14:31:40.379Z,5.98
2024-02-29T14:34:07.705Z,6.05
2024-02-29T14:36:36.279Z,6.07
2024-02-29T14:39:12.530Z,6.08
2024-02-29T14:41:39.777Z,6.12
2024-02-29T14:44:07.234Z,6.07
2024-02-29T14:46:34.439Z,5.92
2024-02-29T14:49:01.805Z,5.93
2024-02-29T14:51:28.872Z,5.89
2024-02-29T14:53:56.209Z,5.90
2024-02-29T14:56:24.455Z,5.91
2024-02-29T14:58:51.857Z,5.96
2024-02-29T15:01:19.918Z,5.93
2024-02-29T15:03:47.100Z,6.02
2024-02-29T15:06:14.300Z,5.93
2024-02-29T15:08:41.429Z,5.93
2024-02-29T15:11:09.023Z,6.02
2024-02-29T15:13:36.175Z,6.05
2024-02-29T15:16:03.378Z,6.05
2024-02-29T15:18:30.685Z,6.03
2024-02-29T15:20:57.740Z,6.01
2024-02-29T15:23:24.794Z,5.96
2024-02-29T15:25:51.905Z,6.01
2024-02-29T15:28:19.157Z,5.96
2024-02-29T15:30:47.368Z,5.88
2024-02-29T15:33:14.624Z,5.85
2024-02-29T15:35:41.823Z,5.80
2024-02-29T15:38:09.009Z,5.81
2024-02-29T15:40:36.154Z,5.79
2024-02-29T15:43:03.411Z,5.67
2024-02-29T15:45:30.473Z,5.69
2024-02-29T15:47:57.559Z,5.72
2024-02-29T15:50:24.731Z,5.77
2024-02-29T15:52:52.156Z,5.73
2024-02-29T15:55:19.292Z,5.69
2024-02-29T15:57:46.473Z,5.67
2024-02-29T16:00:13.894Z,5.66
2024-02-29T16:02:41.255Z,5.71
2024-02-29T16:05:08.559Z,5.72
2024-02-29T16:07:35.772Z,5.69
2024-02-29T16:10:03.230Z,5.78
2024-02-29T16:12:30.438Z,5.73
2024-02-29T16:14:57.573Z,5.75
2024-02-29T16:17:25.538Z,5.72
2024-02-29T16:19:52.659Z,5.65
2024-02-29T16:22:19.779Z,5.65
2024-02-29T16:24:47.098Z,5.69
2024-02-29T16:27:14.468Z,5.67
2024-02-29T16:29:41.586Z,5.67
2024-02-29T16:32:08.735Z,5.60
2024-02-29T16:34:36.410Z,5.61
2024-02-29T16:37:04.320Z,5.58
2024-02-29T16:39:31.580Z,5.55
2024-02-29T16:41:58.711Z,5.53
2024-02-29T16:44:27.619Z,5.50
2024-02-29T16:46:54.926Z,5.46
2024-02-29T16:49:22.217Z,5.49
2024-02-29T16:51:49.461Z,5.51
2024-02-29T16:54:16.584Z,5.47
2024-02-29T16:56:46.062Z,5.51
2024-02-29T16:59:13.800Z,5.47
2024-02-29T17:01:41.778Z,5.44
2024-02-29T17:04:09.023Z,5.41
2024-02-29T17:06:36.766Z,5.35
2024-02-29T17:09:04.751Z,5.37
2024-02-29T17:11:32.006Z,5.30
2024-02-29T17:13:59.290Z,5.26
2024-02-29T17:16:26.601Z,5.24
2024-02-29T17:18:53.813Z,5.20
2024-02-29T17:21:25.971Z,5.15
2024-02-29T17:23:53.847Z,5.10
2024-02-29T17:26:21.413Z,5.11
2024-02-29T17:28:52.110Z,5.12
2024-02-29T17:31:20.547Z,5.08
2024-02-29T17:33:48.142Z,5.12
2024-02-29T17:36:15.649Z,5.04
2024-02-29T17:38:42.696Z,4.97
2024-02-29T17:41:12.649Z,4.95
2024-02-29T17:43:40.458Z,4.99
2024-02-29T17:46:07.714Z,4.93
2024-02-29T17:48:35.991Z,4.93
2024-02-29T17:51:04.344Z,4.90
2024-02-29T17:53:31.427Z,4.85
2024-02-29T17:55:58.477Z,4.89
2024-02-29T17:58:25.937Z,4.88
2024-02-29T18:00:53.301Z,4.86
2024-02-29T18:03:20.475Z,4.86
2024-02-29T18:05:47.604Z,4.82
2024-02-29T18:08:14.766Z,4.82
2024-02-29T18:10:41.892Z,4.79
2024-02-29T18:13:09.138Z,4.78
2024-02-29T18:15:36.334Z,4.76
2024-02-29T18:18:03.527Z,4.76
2024-02-29T18:20:30.639Z,4.75
2024-02-29T18:22:57.808Z,4.72
2024-02-29T18:25:25.030Z,4.70
2024-02-29T18:27:52.177Z,4.70
2024-02-29T18:30:19.462Z,4.67
2024-02-29T18:32:46.565Z,4.64
2024-02-29T18:35:14.233Z,4.59
2024-02-29T18:37:41.514Z,4.56
2024-02-29T18:40:09.704Z,4.51
2024-02-29T18:42:36.859Z,4.46
2024-02-29T18:45:04.077Z,4.42
2024-02-29T18:47:33.144Z,4.41
2024-02-29T18:50:00.362Z,4.37
2024-02-29T18:52:27.648Z,4.37
2024-02-29T18:54:54.860Z,4.37
2024-02-29T18:57:22.543Z,4.35
2024-02-29T18:59:49.758Z,4.28
2024-02-29T19:02:16.909Z,4.26
2024-02-29T19:04:44.458Z,4.19
2024-02-29T19:07:11.577Z,4.06
2024-02-29T19:09:38.743Z,4.08
2024-02-29T19:12:07.211Z,4.04
2024-02-29T19:14:34.276Z,4.00
2024-02-29T19:17:01.629Z,3.96
2024-02-29T19:19:28.785Z,3.95
2024-02-29T19:21:56.138Z,3.88
2024-02-29T19:24:23.231Z,3.89
2024-02-29T19:26:50.274Z,3.87
2024-02-29T19:29:17.387Z,3.88
2024-02-29T19:31:44.479Z,3.87
2024-02-29T19:34:11.584Z,3.90
2024-02-29T19:36:38.644Z,3.84
2024-02-29T19:39:05.737Z,3.80
2024-02-29T19:41:32.788Z,3.76
2024-02-29T19:43:59.873Z,3.76
2024-02-29T19:46:26.958Z,3.76
2024-02-29T19:48:55.031Z,3.74
2024-02-29T19:51:22.152Z,3.71
2024-02-29T19:53:49.556Z,3.71
2024-02-29T19:56:16.963Z,3.68
2024-02-29T19:58:44.087Z,3.65
2024-02-29T20:01:12.020Z,3.65
2024-02-29T20:03:39.196Z,3.64
2024-02-29T20:06:06.465Z,3.63
2024-02-29T20:08:33.598Z,3.60
2024-02-29T20:11:00.668Z,3.59
2024-02-29T20:13:28.004Z,3.58
2024-02-29T20:15:55.188Z,3.57
2024-02-29T20:18:24.309Z,3.55
2024-02-29T20:20:51.529Z,3.55
2024-02-29T20:23:19.505Z,3.53
2024-02-29T20:25:47.257Z,3.50
2024-02-29T20:28:14.439Z,3.45
2024-02-29T20:30:41.562Z,3.38
2024-02-29T20:33:08.619Z,3.35
2024-02-29T20:35:35.830Z,3.35
2024-02-29T20:38:02.934Z,3.37
2024-02-29T20:40:30.023Z,3.36
2024-02-29T20:42:57.125Z,3.34
2024-02-29T20:45:25.373Z,3.34
2024-02-29T20:47:52.542Z,3.32
2024-02-29T20:50:19.654Z,3.30
2024-02-29T20:52:47.730Z,3.30
2024-02-29T20:55:15.166Z,3.30
2024-02-29T20:57:42.394Z,3.32
2024-02-29T21:00:12.857Z,3.24
2024-02-29T21:02:39.986Z,3.23
2024-02-29T21:05:07.231Z,3.21
2024-02-29T21:07:34.636Z,3.20
2024-02-29T21:10:02.223Z,3.12
2024-02-29T21:12:29.446Z,3.09
2024-02-29T21:14:56.576Z,3.09
2024-02-29T21:17:23.741Z,3.07
2024-02-29T21:19:50.911Z,3.07
2024-02-29T21:22:18.139Z,3.10
2024-02-29T21:24:45.428Z,3.10
2024-02-29T21:27:12.564Z,3.10
2024-02-29T21:29:42.082Z,3.10
2024-02-29T21:32:10.464Z,3.11
2024-02-29T21:34:37.522Z,3.12
2024-02-29T21:37:04.712Z,3.10
2024-02-29T21:39:36.692Z,3.06
2024-02-29T21:42:11.044Z,3.09
2024-02-29T21:44:38.192Z,3.10
2024-02-29T21:47:05.392Z,3.12
2024-02-29T21:49:32.493Z,3.13
2024-02-29T21:51:59.652Z,3.10
2024-02-29T21:54:26.931Z,3.08
2024-02-29T21:56:54.034Z,3.09
2024-02-29T21:59:21.141Z,3.09
2024-02-29T22:01:48.776Z,3.08
2024-02-29T22:04:16.210Z,3.09
2024-02-29T22:06:44.113Z,3.06
2024-02-29T22:09:11.518Z,3.05
2024-02-29T22:11:38.674Z,3.07
2024-02-29T22:14:05.992Z,3.03
2024-02-29T22:16:33.901Z,3.05
2024-02-29T22:19:01.712Z,3.04
2024-02-29T22:21:29.149Z,3.05
2024-02-29T22:23:56.463Z,3.04
2024-02-29T22:26:23.913Z,3.00
2024-02-29T22:28:51.091Z,2.98
2024-02-29T22:31:18.563Z,2.94
2024-02-29T22:33:46.101Z,2.89
2024-02-29T22:36:13.480Z,2.84
2024-02-29T22:38:40.780Z,2.85
2024-02-29T22:41:08.097Z,2.84
2024-02-29T22:43:35.572Z,2.83
2024-02-29T22:46:02.795Z,2.77
2024-02-29T22:48:30.008Z,2.69
2024-02-29T22:50:57.132Z,2.61
2024-02-29T22:53:24.345Z,2.58
2024-02-29T22:55:52.116Z,2.53
2024-02-29T22:58:20.426Z,2.52
2024-02-29T23:00:53.401Z,2.48
2024-02-29T23:03:24.117Z,2.46
2024-02-29T23:05:51.277Z,2.37
2024-02-29T23:08:18.752Z,2.34
2024-02-29T23:10:46.271Z,2.28
2024-02-29T23:13:13.577Z,2.25
2024-02-29T23:15:40.685Z,2.25
2024-02-29T23:18:07.980Z,2.24
2024-02-29T23:20:35.234Z,2.10
2024-02-29T23:23:02.428Z,2.11
2024-02-29T23:25:30.336Z,2.15
2024-02-29T23:27:57.752Z,2.14
2024-02-29T23:30:24.958Z,2.11
2024-02-29T23:32:52.102Z,2.07
2024-02-29T23:35:19.385Z,2.02
2024-02-29T23:37:46.645Z,2.03
2024-02-29T23:40:16.738Z,2.11
2024-02-29T23:42:44.447Z,2.04
2024-02-29T23:45:11.670Z,2.03
2024-02-29T23:47:38.834Z,2.07
2024-02-29T23:50:06.850Z,2.06
2024-02-29T23:52:34.452Z,2.03
2024-02-29T23:55:01.607Z,2.01
2024-02-29T23:57:28.758Z,1.98
2024-02-29T23:59:55.830Z,2.00
